Latest Weather Observations for Mount Crawford

IDS60901

Issued at 12:21 am CDT Monday 26 October 2020 (issued every 10 minutes, with the page automatically refreshed every 10 minutes)

About weather observations | Map of Adelaide area stations | Latest observations for Adelaide area | Other Formats
Station Details ID: 023878 Name: MOUNT CRAWFORD AWS Lat: -34.73 Lon: 138.93 Height: 525.0 m
Data from the previous 72 hours. | See also: Recent months at Mount Crawford
Date/Time
CDT
Temp
°C
App
Temp
°C
Dew
Point
°C
Rel
Hum
%
Delta-T
°C
Wind Press
QNH
hPa
Press
MSL
hPa
Rain since
9am
mm
Dir  Spd
km/h
Gust
km/h
Spd
kts
Gust
kts
26/12:00am 6.8 1.4 2.5 74 1.8 SE 20 33 11 18 1021.7 1021.0 0.0
 
Date/Time
CDT
Temp
°C
App
Temp
°C
Dew
Point
°C
Rel
Hum
%
Delta-T
°C
Wind Press
QNH
hPa
Press
MSL
hPa
Rain since
9am
mm
Dir  Spd
km/h
Gust
km/h
Spd
kts
Gust
kts
25/11:30pm 7.1 1.0 2.6 73 1.9 SE 24 35 13 19 1021.7 1021.0 0.0
25/11:00pm 7.3 1.7 3.2 75 1.8 SE 22 39 12 21 1021.8 1021.2 0.0
25/10:30pm 7.3 2.7 3.5 77 1.7 SE 17 22 9 12 1021.9 1021.3 0.0
25/10:00pm 7.3 2.2 4.1 80 1.4 SSE 20 33 11 18 1021.9 1021.3 0.0
25/09:30pm 7.3 1.9 4.4 82 1.3 SSE 22 37 12 20 1021.8 1021.2 0.0
25/09:00pm 7.2 2.1 4.2 81 1.3 SSE 20 32 11 17 1021.6 1020.9 0.0
25/08:30pm 7.2 2.0 3.8 79 1.5 SSE 20 35 11 19 1021.5 1020.8 0.0
25/08:00pm 7.3 1.4 3.7 78 1.6 SSE 24 39 13 21 1021.5 1020.8 0.0
25/07:30pm 7.3 0.9 3.2 75 1.8 S 26 37 14 20 1021.3 1020.6 0.0
25/07:00pm 7.5 1.1 3.4 75 1.8 S 26 35 14 19 1021.0 1020.4 0.0
25/06:30pm 7.6 1.1 2.7 71 2.1 SSE 26 39 14 21 1020.9 1020.3 0.0
25/06:00pm 8.1 1.6 2.6 68 2.4 SSE 26 41 14 22 1020.6 1020.0 0.0
25/05:30pm 8.3 1.7 1.9 64 2.7 SSE 26 39 14 21 1020.6 1020.0 0.0
25/05:00pm 8.9 3.0 1.6 60 3.1 SSE 22 39 12 21 1020.4 1019.8 0.0
25/04:30pm 9.0 1.8 1.0 57 3.4 SSE 28 46 15 25 1020.3 1019.7 0.0
25/04:14pm 9.2 2.1 1.1 57 3.4 S 28 46 15 25 1020.3 1019.7 0.0
25/04:00pm 9.7 2.8 0.1 51 4.0 S 26 43 14 23 1020.4 1019.8 0.0
25/03:30pm 9.4 2.2 0.6 54 3.7 SSE 28 43 15 23 1020.7 1020.1 0.0
25/03:00pm 10.9 4.1 0.9 50 4.3 SSE 26 37 14 20 1020.8 1020.2 0.0
25/02:37pm 9.9 2.6 0.3 51 4.0 SSE 28 46 15 25 1020.8 1020.2 0.0
25/02:30pm 11.2 5.4 2.2 54 4.0 SSE 22 37 12 20 1021.0 1020.4 0.0
25/02:00pm 10.2 3.4 1.1 53 3.9 SSE 26 35 14 19 1021.3 1020.6 0.0
25/01:30pm 9.8 3.1 1.2 55 3.7 SSE 26 41 14 22 1021.4 1020.7 0.0
25/01:00pm 10.7 3.2 1.0 51 4.1 SE 30 44 16 24 1021.5 1020.8 0.0
25/12:30pm 10.2 2.6 0.3 50 4.1 SE 30 44 16 24 1021.7 1021.0 0.0
25/12:05pm 9.8 2.6 0.9 54 3.8 SE 28 46 15 25 1021.8 1021.2 0.0
25/12:00pm 9.7 2.6 1.1 55 3.6 SE 28 39 15 21 1022.0 1021.4 0.0
25/11:30am 8.3 2.4 1.5 62 2.9 SSE 22 35 12 19 1022.2 1021.6 0.0
25/11:00am 7.4 1.5 1.5 66 2.5 SE 22 33 12 18 1022.4 1021.8 0.0
25/10:30am 7.1 0.5 2.0 70 2.1 SE 26 39 14 21 1022.5 1021.9 0.0
25/10:00am 6.2 0.8 4.4 88 0.8 SE 22 33 12 18 1022.5 1021.9 0.0
25/09:30am 5.7 0.6 4.0 89 0.7 SE 20 32 11 17 1022.4 1021.8 0.0
25/09:00am 5.6 0.7 4.9 95 0.3 ESE 20 35 11 19 1022.1 1021.5 1.0
25/08:30am 5.8 1.2 5.8 100 0.0 SE 19 24 10 13 1021.9 1021.3 1.0
25/08:00am 5.1 1.1 5.1 100 0.0 SE 15 22 8 12 1021.5 1020.8 1.0
25/07:30am 4.8 0.4 4.8 100 0.0 SE 17 28 9 15 1021.0 1020.4 1.0
25/07:00am 4.7 0.3 4.7 100 0.0 SE 17 24 9 13 1020.5 1019.9 1.0
25/06:30am 4.6 -0.4 4.6 100 0.0 SE 20 32 11 17 1020.1 1019.5 1.0
25/06:00am 5.1 0.8 5.1 100 0.0 SE 17 28 9 15 1019.7 1019.0 0.8
25/05:30am 5.2 0.9 5.2 100 0.0 ESE 17 22 9 12 1019.5 1018.8 0.6
25/05:00am 5.2 1.6 5.2 100 0.0 SSE 13 24 7 13 1019.4 1018.7 0.6
25/04:30am 5.2 1.6 5.2 100 0.0 S 13 17 7 9 1019.0 1018.4 0.2
25/04:00am 4.9 0.5 4.6 98 0.1 SSE 17 20 9 11 1018.7 1018.1 0.0
25/03:30am 5.1 0.7 4.8 98 0.1 SE 17 22 9 12 1018.3 1017.6 0.0
25/03:00am 5.2 0.8 4.9 98 0.1 S 17 28 9 15 1018.4 1017.8 0.0
25/02:30am 5.8 1.1 5.2 96 0.3 SSE 19 32 10 17 1018.3 1017.6 0.0
25/02:00am 5.8 1.4 4.6 92 0.5 SSE 17 26 9 14 1018.4 1017.8 0.0
25/01:30am 6.0 1.9 4.5 90 0.7 SSW 15 26 8 14 1018.4 1017.8 0.0
25/01:00am 6.0 1.8 4.0 87 0.9 S 15 20 8 11 1018.5 1017.9 0.0
25/12:30am 5.7 1.8 3.4 85 1.0 S 13 19 7 10 1018.2 1017.5 0.0
25/12:00am 5.6 1.4 3.9 89 0.7 S 15 20 8 11 1018.0 1017.3 0.0
 
Date/Time
CDT
Temp
°C
App
Temp
°C
Dew
Point
°C
Rel
Hum
%
Delta-T
°C
Wind Press
QNH
hPa
Press
MSL
hPa
Rain since
9am
mm
Dir  Spd
km/h
Gust
km/h
Spd
kts
Gust
kts
24/11:30pm 6.1 2.0 4.3 88 0.8 S 15 20 8 11 1017.9 1017.2 0.0
24/11:00pm 6.8 2.5 3.4 79 1.5 SSW 15 22 8 12 1017.8 1017.1 0.0
24/10:30pm 6.5 2.1 2.9 78 1.5 S 15 20 8 11 1017.8 1017.1 0.0
24/10:00pm 7.0 1.8 2.5 73 1.9 S 19 28 10 15 1017.9 1017.2 0.0
24/09:30pm 7.2 1.9 1.7 68 2.3 S 19 30 10 16 1017.8 1017.1 0.0
24/09:00pm 7.2 1.7 2.1 70 2.2 SSW 20 32 11 17 1017.5 1016.8 0.0
24/08:30pm 7.4 0.8 2.1 69 2.3 S 26 39 14 21 1017.2 1016.5 0.0
24/08:00pm 7.6 1.5 2.7 71 2.1 SSW 24 35 13 19 1016.8 1016.2 0.0
24/07:30pm 7.8 1.0 3.1 72 2.1 S 28 39 15 21 1016.4 1015.7 0.0
24/07:00pm 8.0 2.3 2.9 70 2.2 SSW 22 35 12 19 1016.1 1015.4 0.0
24/06:30pm 8.3 2.4 3.8 73 2.0 S 24 35 13 19 1015.7 1015.0 0.0
24/06:00pm 9.1 2.9 2.4 63 2.9 SSW 24 37 13 20 1015.3 1014.6 0.0
24/05:43pm 9.2 2.3 2.8 64 2.8 SSW 28 46 15 25 1014.9 1014.2 0.0
24/05:30pm 9.8 3.2 4.0 67 2.6 S 28 39 15 21 1014.7 1014.0 0.0
24/05:08pm 10.1 3.3 5.1 71 2.3 S 30 48 16 26 1014.3 1013.6 0.0
24/05:00pm 10.2 2.8 5.2 71 2.3 S 33 48 18 26 1014.1 1013.4 0.0
24/04:38pm 10.0 3.2 5.2 72 2.2 S 30 48 16 26 1013.9 1013.2 0.0
24/04:30pm 10.7 4.4 5.9 72 2.3 SSW 28 39 15 21 1013.9 1013.2 0.0
24/04:10pm 10.6 3.9 5.8 72 2.3 S 30 48 16 26 1013.7 1013.0 0.0
24/04:00pm 11.6 4.4 6.1 69 2.7 SSW 33 48 18 26 1013.5 1012.7 0.0
24/03:45pm 11.3 4.7 6.0 70 2.5 S 30 48 16 26 1013.5 1012.7 0.0
24/03:30pm 12.0 5.9 6.5 69 2.7 S 28 41 15 22 1013.6 1012.9 0.0
24/03:07pm 11.9 5.2 7.2 73 2.3 S 32 50 17 27 1013.8 1013.1 0.0
24/03:00pm 10.1 2.9 6.1 76 1.9 SSW 33 50 18 27 1013.7 1013.0 0.0
24/02:32pm 11.7 5.6 6.8 72 2.4 SSW 28 46 15 25 1013.5 1012.7 0.0
24/02:30pm 12.8 7.6 7.3 69 2.7 SSW 24 39 13 21 1013.6 1012.9 0.0
24/02:03pm 11.8 5.7 6.5 70 2.6 SSW 28 46 15 25 1013.5 1012.7 0.0
24/02:00pm 12.0 6.4 7.3 73 2.3 SSW 26 44 14 24 1013.6 1012.9 0.0
24/01:30pm 10.4 5.3 7.5 82 1.4 S 24 37 13 20 1013.6 1012.9 0.0
24/01:00pm 11.5 5.2 7.6 77 1.9 SSW 30 41 16 22 1013.3 1012.5 0.0
24/12:30pm 10.3 4.5 8.1 86 1.1 SSW 28 39 15 21 1013.4 1012.6 0.0
24/12:00pm 10.3 4.7 7.2 81 1.5 SSW 26 35 14 19 1013.3 1012.5 0.0
24/11:30am 12.5 7.4 7.8 73 2.4 SSW 24 35 13 19 1013.2 1012.4 0.0
24/11:00am 11.1 4.8 7.2 77 1.9 SSW 30 44 16 24 1012.9 1012.2 0.0
24/10:30am 10.0 4.8 7.4 84 1.3 SSW 24 39 13 21 1012.4 1011.7 0.0
24/10:00am 9.8 5.0 8.7 93 0.6 SSW 24 37 13 20 1012.3 1011.6 0.0
24/09:30am 9.3 4.0 6.7 84 1.3 SSW 24 39 13 21 1012.0 1011.3 0.0
24/09:00am 9.4 4.6 7.2 86 1.1 SSW 22 35 12 19 1011.6 1010.8 1.6
24/08:30am 9.0 3.5 6.1 82 1.4 SSW 24 37 13 20 1011.3 1010.5 1.6
24/08:00am 8.0 2.5 5.8 86 1.0 SSW 24 35 13 19 1011.1 1010.3 1.6
24/07:31am 7.9 1.4 4.5 79 1.5 SSW 28 46 15 25 1010.6 1009.9 1.6
24/07:30am 7.8 0.9 4.6 80 1.5 SSW 30 46 16 25 1010.6 1009.9 1.6
24/07:00am 7.8 1.3 4.6 80 1.4 SSW 28 54 15 29 1010.3 1009.6 1.6
24/06:37am 7.7 1.1 4.3 79 1.5 SSW 28 52 15 28 1010.0 1009.2 1.6
24/06:30am 7.6 0.3 4.6 81 1.4 SSW 32 44 17 24 1010.0 1009.2 1.6
24/06:00am 7.6 0.3 4.7 82 1.3 S 32 52 17 28 1009.5 1008.7 1.6
24/05:37am 7.7 1.4 5.5 86 1.0 SSW 28 46 15 25 1009.3 1008.5 1.6
24/05:30am 7.8 2.4 6.4 91 0.7 SSW 24 37 13 20 1009.4 1008.6 1.6
24/05:00am 7.9 3.0 6.7 92 0.6 SSW 22 35 12 19 1008.9 1008.2 1.6
24/04:30am 7.9 1.7 6.0 88 0.9 S 28 43 15 23 1008.3 1007.5 1.6
24/04:11am 8.0 1.9 6.6 91 0.7 SSW 28 50 15 27 1008.2 1007.4 1.6
24/04:00am 7.9 2.7 7.1 95 0.4 SSW 24 37 13 20 1008.3 1007.5 1.6
24/03:30am 8.1 1.8 7.3 95 0.4 SSW 30 46 16 25 1008.0 1007.2 1.6
24/03:00am 8.1 1.8 7.5 96 0.3 S 30 52 16 28 1007.6 1006.8 1.6
24/02:37am 8.1 1.6 8.1 100 0.0 S 32 54 17 29 1007.4 1006.6 1.6
24/02:30am 8.2 2.1 8.2 100 0.0 S 30 46 16 25 1007.5 1006.7 1.6
24/02:02am 8.3 0.5 8.3 100 0.0 S 39 57 21 31 1007.2 1006.4 1.6
24/02:00am 8.3 0.1 8.3 100 0.0 S 41 57 22 31 1007.2 1006.4 1.6
24/01:30am 8.6 1.6 8.6 100 0.0 S 35 56 19 30 1007.4 1006.6 1.6
24/01:00am 8.6 1.3 8.6 100 0.0 S 37 59 20 32 1007.5 1006.7 1.6
24/12:35am 8.9 2.0 8.9 100 0.0 S 35 54 19 29 1007.4 1006.6 1.6
24/12:30am 9.0 2.7 9.0 100 0.0 S 32 48 17 26 1007.5 1006.7 1.6
24/12:05am 9.2 2.4 9.2 100 0.0 S 35 57 19 31 1007.1 1006.3 1.6
24/12:00am 9.2 2.4 9.2 100 0.0 S 35 50 19 27 1007.1 1006.3 1.6
 
Date/Time
CDT
Temp
°C
App
Temp
°C
Dew
Point
°C
Rel
Hum
%
Delta-T
°C
Wind Press
QNH
hPa
Press
MSL
hPa
Rain since
9am
mm
Dir  Spd
km/h
Gust
km/h
Spd
kts
Gust
kts
23/11:30pm 9.4 2.6 9.4 100 0.0 S 35 54 19 29 1006.6 1005.8 1.6
23/11:00pm 9.5 2.8 9.5 100 0.0 S 35 56 19 30 1006.7 1005.9 1.6
23/10:37pm 9.5 2.8 9.5 100 0.0 S 35 54 19 29 1007.0 1006.2 1.6
23/10:30pm 9.6 2.1 9.6 100 0.0 S 39 52 21 28 1006.8 1006.0 1.6
23/10:00pm 9.8 2.4 9.8 100 0.0 S 39 54 21 29 1006.4 1005.6 1.6
23/09:30pm 10.1 3.1 10.1 100 0.0 S 37 56 20 30 1006.2 1005.4 1.6
23/09:00pm 10.3 4.4 10.3 100 0.0 SSE 32 52 17 28 1006.1 1005.3 1.6
23/08:30pm 10.5 5.0 10.5 100 0.0 SSE 30 50 16 27 1005.6 1004.8 1.6
23/08:00pm 10.8 5.8 10.8 100 0.0 SSE 28 46 15 25 1005.6 1004.8 1.6
23/07:59pm 10.8 5.8 10.8 100 0.0 SSE 28 46 15 25 1005.6 1004.8 1.6
23/07:30pm 11.3 6.4 11.3 100 0.0 SSE 28 44 15 24 1005.3 1004.5 1.6
23/07:00pm 11.8 7.0 11.8 100 0.0 SSE 28 44 15 24 1004.8 1004.0 1.6
23/06:30pm 12.6 7.7 12.6 100 0.0 SSE 30 44 16 24 1004.5 1003.7 1.6
23/06:00pm 13.2 9.3 13.2 100 0.0 SSE 26 37 14 20 1004.4 1003.6 1.6
23/05:30pm 13.4 9.4 13.1 98 0.2 SSE 26 37 14 20 1004.1 1003.3 1.6
23/05:00pm 13.2 10.0 13.2 100 0.0 SSE 22 33 12 18 1004.3 1003.5 1.6
23/04:30pm 13.3 10.2 13.3 100 0.0 SSE 22 32 12 17 1004.2 1003.4 1.6
23/04:00pm 14.7 12.0 13.4 92 0.7 SE 20 28 11 15 1004.1 1003.3 1.6
23/03:30pm 15.8 13.2 13.8 88 1.2 ESE 20 28 11 15 1004.0 1003.2 1.6
23/03:00pm 16.1 13.9 14.3 89 1.1 SE 19 24 10 13 1004.0 1003.2 1.6
23/02:30pm 15.9 13.8 14.6 92 0.8 SE 19 26 10 14 1004.2 1003.4 1.6
23/02:00pm 15.6 13.8 14.5 93 0.6 SSE 17 20 9 11 1004.7 1003.9 1.6
23/01:30pm 16.5 16.7 15.7 95 0.5 SSE 9 13 5 7 1005.1 1004.2 1.6
23/01:00pm 15.9 15.8 15.9 100 0.0 SE 11 17 6 9 1005.2 1004.3 1.6
23/12:30pm 15.3 14.2 15.3 100 0.0 SE 15 19 8 10 1004.7 1003.9 1.6
23/12:00pm 15.5 15.2 15.5 100 0.0 SE 11 15 6 8 1004.8 1004.0 1.4
23/11:30am 15.5 14.4 15.2 98 0.2 SSW 15 19 8 10 1005.0 1004.1 1.0
23/11:00am 15.3 14.8 15.0 98 0.2 N 11 17 6 9 1005.5 1004.7 1.0
23/10:30am 14.3 13.1 14.0 98 0.2 N 13 19 7 10 1006.0 1005.2 0.6
23/10:00am 13.9 11.1 12.6 92 0.7 N 19 24 10 13 1006.6 1005.8 0.4
23/09:30am 14.7 12.2 11.1 79 2.0 NNW 15 20 8 11 1006.5 1005.7 0.0
23/09:00am 15.1 11.7 10.7 75 2.4 NNW 19 24 10 13 1006.3 1005.5 2.0
23/08:30am 15.1 11.2 10.7 75 2.4 NNW 22 32 12 17 1006.8 1006.0 2.0
23/08:00am 15.1 10.1 10.9 76 2.3 N 28 41 15 22 1007.1 1006.3 2.0
23/07:53am 15.5 11.2 10.7 73 2.6 N 24 41 13 22 1007.1 1006.3 1.8
23/07:30am 13.6 11.5 11.1 85 1.4 ENE 13 19 7 10 1006.5 1005.7 1.8
23/07:00am 13.1 10.3 11.3 89 1.0 ESE 17 19 9 10 1005.9 1005.1 1.8
23/06:30am 13.6 10.6 10.8 83 1.5 SE 17 22 9 12 1006.2 1005.4 1.4
23/06:00am 14.1 10.1 10.3 78 2.0 SE 22 30 12 16 1005.4 1004.6 1.4
23/05:30am 14.2 9.4 10.2 77 2.1 SE 26 32 14 17 1005.0 1004.1 1.4
23/05:00am 14.1 8.5 10.1 77 2.1 ESE 30 37 16 20 1004.6 1003.8 1.4
23/04:30am 14.2 8.6 10.0 76 2.2 ESE 30 37 16 20 1004.8 1004.0 1.4
23/04:00am 14.3 9.0 9.9 75 2.3 ESE 28 35 15 19 1005.0 1004.1 1.4
23/03:30am 14.5 8.4 9.7 73 2.6 ESE 32 39 17 21 1005.2 1004.3 1.4
23/03:00am 14.5 8.4 9.7 73 2.6 SE 32 43 17 23 1005.5 1004.7 1.4
23/02:30am 15.0 8.3 9.6 70 2.9 SSE 35 46 19 25 1006.1 1005.3 1.4
23/02:00am 15.2 9.7 9.1 67 3.2 ESE 28 35 15 19 1006.1 1005.3 1.4
23/01:30am 15.0 9.2 9.4 69 3.0 E 30 39 16 21 1006.2 1005.4 1.4
23/01:00am 14.6 9.0 10.0 74 2.5 E 30 41 16 22 1007.0 1006.2 1.4
23/12:30am 14.8 8.6 10.0 73 2.6 ESE 33 44 18 24 1007.1 1006.3 1.4

Latest Capital City Observations: Canberra | Sydney | Melbourne | Brisbane | Adelaide | Perth | Hobart | Darwin

Other formats

Comma delimited format used in spreadsheet applications
http://www.bom.gov.au/fwo/IDS60901/IDS60901.94678.axf

JavaScript Object Notation format (JSON) in row-major order
http://www.bom.gov.au/fwo/IDS60901/IDS60901.94678.json

Data quality

Most of these data are generated automatically and are frequently updated. Quality checks on data are not normally performed. It is possible for incorrect values to appear. Refer to information at About Latest Weather Observations and please check the disclaimer before using these data.